Latest Weather Observations for Sydney Olympic Park

IDN60801

Issued at 11:02 am EDT Thursday 23 March 2017 (issued every 30 minutes, with the page automatically refreshed every 10 minutes)

About weather observations | Map of weather stations | Latest weather observations for NSW | Other Formats
Station Details ID: 066212 Name: SYDNEY OLYMPIC PARK AWS (ARCHERY CENTRE) Lat: -33.83 Lon: 151.07 Height: 4.0 m
Data from the previous 72 hours. | See also: Recent months at Sydney Olympic Park
Date/Time
EDT
Temp
°C
App
Temp
°C
Dew
Point
°C
Rel
Hum
%
Delta-T
°C
Wind Press
QNH
hPa
Press
MSL
hPa
Rain since
9am
mm
Dir  Spd
km/h
Gust
km/h
Spd
kts
Gust
kts
23/11:00am 22.7 23.6 17.6 73 3.2 SSW 9 17 5 9 - - 0.0
23/10:30am 22.4 22.7 17.1 72 3.3 SSW 11 19 6 10 - - 0.0
23/10:00am 22.2 23.3 17.1 73 3.1 WSW 7 13 4 7 - - 0.0
23/09:30am 21.7 22.7 16.9 74 2.9 SW 7 11 4 6 - - 0.0
23/09:00am 21.3 22.3 16.9 76 2.7 SSW 7 13 4 7 - - 43.6
23/08:30am 21.2 22.2 16.8 76 2.7 SW 7 13 4 7 - - 43.6
23/08:00am 20.8 22.2 17.4 81 2.1 SW 6 11 3 6 - - 43.6
23/07:30am 20.3 23.0 17.7 85 1.6 CALM 0 6 0 3 - - 43.6
23/07:00am 20.3 22.9 17.5 84 1.7 CALM 0 0 0 0 - - 43.6
23/06:30am 20.6 21.9 17.2 81 2.1 SSW 6 13 3 7 - - 43.6
23/06:00am 20.6 21.9 17.2 81 2.1 WSW 6 9 3 5 - - 43.6
23/05:30am 20.6 22.0 17.4 82 2.0 SSW 6 9 3 5 - - 43.6
23/05:00am 20.7 22.5 17.5 82 2.0 SSW 4 9 2 5 - - 43.6
23/04:30am 20.9 21.8 17.5 81 2.1 SW 9 13 5 7 - - 43.6
23/04:00am 21.0 22.7 18.0 83 1.9 S 6 11 3 6 - - 43.6
23/03:30am 20.8 23.4 18.4 86 1.5 SSW 2 7 1 4 - - 43.6
23/03:00am 21.1 22.2 18.1 83 1.9 S 9 13 5 7 - - 43.6
23/02:30am 21.2 22.9 18.6 85 1.6 S 7 15 4 8 - - 43.6
23/02:00am 21.3 23.4 18.9 86 1.5 S 6 17 3 9 - - 43.6
23/01:30am 21.3 23.8 19.0 87 1.5 SW 4 9 2 5 - - 43.6
23/01:00am 21.4 23.0 19.1 87 1.5 SSW 9 17 5 9 - - 43.6
23/12:30am 21.5 23.5 20.0 91 1.0 SSW 9 15 5 8 - - 43.6
23/12:00am 21.6 23.4 20.4 93 0.8 S 11 17 6 9 - - 43.6
 
Date/Time
EDT
Temp
°C
App
Temp
°C
Dew
Point
°C
Rel
Hum
%
Delta-T
°C
Wind Press
QNH
hPa
Press
MSL
hPa
Rain since
9am
mm
Dir  Spd
km/h
Gust
km/h
Spd
kts
Gust
kts
22/11:30pm 21.8 23.8 20.8 94 0.6 S 11 20 6 11 - - 43.6
22/11:00pm 22.1 24.1 21.6 97 0.3 S 13 20 7 11 - - 43.6
22/10:30pm 21.9 24.4 21.7 99 0.1 SSE 11 20 6 11 - - 43.6
22/10:00pm 21.3 25.6 21.1 99 0.1 CALM 0 0 0 0 - - 43.6
22/09:30pm 21.0 24.3 20.8 99 0.1 SSW 4 11 2 6 - - 43.6
22/09:00pm 20.9 24.6 20.7 99 0.1 SW 2 7 1 4 - - 43.6
22/08:30pm 21.1 24.0 21.1 100 0.0 W 7 13 4 7 - - 43.6
22/08:00pm 20.8 24.5 20.8 100 0.0 WSW 2 11 1 6 - - 43.6
22/07:30pm 20.9 24.6 20.7 99 0.1 WSW 2 7 1 4 - - 43.6
22/07:00pm 20.8 23.7 20.6 99 0.1 NW 6 11 3 6 - - 43.6
22/06:30pm 21.0 22.6 20.8 99 0.1 WNW 13 15 7 8 - - 43.6
22/06:00pm 20.6 22.8 20.4 99 0.1 ESE 9 17 5 9 - - 43.6
22/05:47pm 20.4 20.6 20.2 99 0.1 SE 19 26 10 14 - - 43.6
22/05:30pm 20.5 22.3 20.3 99 0.1 S 11 22 6 12 - - 42.8
22/05:01pm 22.5 25.3 22.3 99 0.1 W 11 20 6 11 - - 32.4
22/05:00pm 22.4 25.1 22.2 99 0.1 W 11 20 6 11 - - 32.4
22/04:37pm 22.2 24.2 20.8 92 0.9 S 11 19 6 10 - - 31.8
22/04:30pm 21.8 23.3 19.7 88 1.3 SE 11 20 6 11 - - 31.8
22/04:00pm 24.4 24.6 20.5 79 2.5 NW 20 37 11 20 - - 2.2
22/03:58pm 25.3 25.5 20.1 73 3.4 N 19 37 10 20 - - 0.8
22/03:30pm 30.4 33.0 21.2 58 6.2 E 9 15 5 8 - - 0.0
22/03:00pm 31.7 35.8 21.5 54 6.9 N 2 9 1 5 - - 0.0
22/02:30pm 30.7 34.5 20.9 56 6.5 W 2 9 1 5 - - 0.0
22/02:00pm 31.1 34.1 21.3 56 6.6 WSW 7 17 4 9 - - 0.0
22/01:30pm 30.5 35.3 22.1 61 5.7 CALM 0 0 0 0 - - 0.0
22/01:00pm 30.0 34.3 21.9 62 5.5 ENE 2 7 1 4 - - 0.0
22/12:30pm 29.0 33.5 22.2 66 4.6 E 2 7 1 4 - - 0.0
22/12:00pm 27.9 33.2 23.1 75 3.3 CALM 0 6 0 3 - - 0.0
22/11:30am 26.6 30.8 23.1 81 2.4 ESE 6 7 3 4 - - 0.0
22/11:00am 25.5 30.6 22.6 84 2.0 CALM 0 0 0 0 - - 0.0
22/10:30am 24.9 30.2 23.1 90 1.2 CALM 0 0 0 0 - - 0.0
22/10:00am 24.1 28.6 22.9 93 0.8 W 4 9 2 5 - - 0.0
22/09:30am 23.4 28.4 23.2 99 0.1 NW 2 7 1 4 - - 0.0
22/09:00am 23.0 27.8 22.8 99 0.1 NW 2 9 1 5 - - 32.6
22/08:30am 22.8 27.1 22.6 99 0.1 NW 4 9 2 5 - - 32.6
22/08:00am 22.4 26.6 22.4 100 0.0 NNW 4 7 2 4 - - 32.6
22/07:30am 21.9 26.6 21.9 100 0.0 CALM 0 6 0 3 - - 32.6
22/07:00am 21.8 26.4 21.8 100 0.0 CALM 0 0 0 0 - - 32.6
22/06:30am 22.0 26.7 22.0 100 0.0 CALM 0 0 0 0 - - 32.6
22/06:00am 22.2 26.7 22.2 100 0.0 WNW 2 7 1 4 - - 32.6
22/05:30am 22.4 27.3 22.4 100 0.0 CALM 0 0 0 0 - - 32.6
22/05:00am 22.4 27.3 22.4 100 0.0 CALM 0 0 0 0 - - 32.6
22/04:30am 22.4 26.2 22.4 100 0.0 NW 6 7 3 4 - - 32.6
22/04:00am 22.5 27.0 22.3 99 0.1 WNW 2 9 1 5 - - 32.6
22/03:30am 22.7 26.0 22.5 99 0.1 WNW 9 13 5 7 - - 32.6
22/03:00am 22.8 25.4 22.6 99 0.1 WNW 13 20 7 11 - - 32.6
22/02:30am 22.9 26.8 22.9 100 0.0 NW 7 15 4 8 - - 32.6
22/02:00am 22.7 26.1 22.7 100 0.0 NW 9 15 5 8 - - 32.4
22/01:30am 22.7 26.1 22.7 100 0.0 WNW 9 15 5 8 - - 32.4
22/01:00am 22.6 26.9 22.6 100 0.0 WNW 4 7 2 4 - - 32.4
22/12:30am 22.6 26.9 22.6 100 0.0 W 4 9 2 5 - - 32.4
22/12:00am 22.5 26.4 22.5 100 0.0 WNW 6 9 3 5 - - 32.4
 
Date/Time
EDT
Temp
°C
App
Temp
°C
Dew
Point
°C
Rel
Hum
%
Delta-T
°C
Wind Press
QNH
hPa
Press
MSL
hPa
Rain since
9am
mm
Dir  Spd
km/h
Gust
km/h
Spd
kts
Gust
kts
21/11:43pm 22.5 26.7 22.5 100 0.0 NNW 4 7 2 4 - - 32.4
21/11:30pm 22.5 26.2 22.5 100 0.0 N 7 11 4 6 - - 32.2
21/11:17pm 22.8 26.3 22.8 100 0.0 NW 9 15 5 8 - - 31.6
21/11:00pm 22.7 26.1 22.7 100 0.0 NW 9 15 5 8 - - 31.4
21/10:30pm 22.9 26.4 22.9 100 0.0 WNW 9 13 5 7 - - 31.4
21/10:00pm 22.9 26.7 22.7 99 0.1 WNW 7 9 4 5 - - 31.4
21/09:30pm 23.2 27.2 22.7 97 0.3 N 6 11 3 6 - - 31.4
21/09:00pm 23.8 28.2 23.8 100 0.0 NNE 7 13 4 7 - - 31.4
21/08:53pm 23.8 27.8 23.8 100 0.0 NE 9 17 5 9 - - 31.4
21/08:33pm 23.8 27.4 23.8 100 0.0 NE 11 19 6 10 - - 31.4
21/08:30pm 23.8 27.8 23.8 100 0.0 NE 9 19 5 10 - - 31.2
21/08:13pm 23.2 28.2 23.2 100 0.0 NE 2 6 1 3 - - 31.2
21/08:00pm 23.2 27.3 23.2 100 0.0 S 7 11 4 6 - - 31.0
21/07:30pm 23.5 28.7 23.5 100 0.0 ESE 2 11 1 6 - - 30.2
21/07:00pm 23.6 28.8 23.6 100 0.0 SW 2 7 1 4 - - 22.2
21/06:30pm 23.6 29.1 23.4 99 0.1 CALM 0 6 0 3 - - 20.0
21/06:16pm 23.6 28.3 23.4 99 0.1 E 4 9 2 5 - - 18.8
21/06:00pm 23.2 26.8 23.0 99 0.1 SE 9 13 5 7 - - 18.2
21/05:30pm 23.2 26.7 22.9 98 0.2 SE 9 13 5 7 - - 18.2
21/05:26pm 23.3 26.4 22.8 97 0.3 SSE 11 17 6 9 - - 18.2
21/05:03pm 23.6 26.3 22.8 95 0.5 ESE 13 20 7 11 - - 18.0
21/05:00pm 23.5 25.9 21.6 89 1.3 ENE 11 20 6 11 - - 16.4
21/04:30pm 25.8 29.0 22.3 81 2.3 SSE 9 13 5 7 - - 0.0
21/04:00pm 26.6 28.8 21.8 75 3.2 ESE 13 17 7 9 - - 0.0
21/03:30pm 26.7 29.4 22.1 76 3.1 SE 11 17 6 9 - - 0.0
21/03:00pm 27.3 29.7 22.3 74 3.4 ESE 13 17 7 9 - - 0.0
21/02:30pm 28.7 31.7 22.7 70 4.1 ESE 11 15 6 8 - - 0.0
21/02:00pm 27.5 30.4 22.4 73 3.4 ESE 11 15 6 8 - - 0.0
21/01:30pm 27.9 31.4 21.9 70 4.0 E 6 11 3 6 - - 0.0
21/01:00pm 27.7 30.7 21.3 68 4.3 ESE 7 11 4 6 - - 0.0
21/12:30pm 27.3 31.3 21.3 69 4.0 ENE 2 9 1 5 - - 0.0
21/12:00pm 27.3 29.8 21.1 69 4.1 E 9 15 5 8 - - 0.0
21/11:30am 26.7 30.1 21.0 71 3.8 E 4 11 2 6 - - 0.0
21/11:00am 25.7 29.0 20.7 74 3.3 ESE 4 9 2 5 - - 0.0
21/10:30am 25.1 29.5 21.4 80 2.4 CALM 0 6 0 3 - - 0.0
21/10:00am 24.5 29.1 21.8 85 1.8 CALM 0 0 0 0 - - 0.0
21/09:30am 24.0 28.9 22.3 90 1.1 CALM 0 0 0 0 - - 0.0
21/09:00am 23.7 28.0 22.0 90 1.1 NNE 2 7 1 4 - - 0.0
21/08:30am 23.1 28.2 22.6 97 0.3 CALM 0 0 0 0 - - 0.0
21/08:00am 22.6 27.5 22.3 98 0.2 CALM 0 7 0 4 - - 0.0
21/07:30am 22.2 26.9 22.0 99 0.1 CALM 0 6 0 3 - - 0.0
21/07:00am 21.9 26.4 21.6 98 0.2 CALM 0 0 0 0 - - 0.0
21/06:30am 22.0 26.5 21.5 97 0.3 CALM 0 0 0 0 - - 0.0
21/06:00am 22.6 27.3 21.9 96 0.5 CALM 0 6 0 3 - - 0.0
21/05:30am 22.4 27.1 21.9 97 0.3 CALM 0 4 0 2 - - 0.0
21/05:00am 22.5 27.1 21.7 95 0.5 CALM 0 0 0 0 - - 0.0
21/04:30am 23.0 27.5 21.6 92 0.9 CALM 0 7 0 4 - - 0.0
21/04:00am 23.1 27.3 21.7 92 0.9 NE 2 7 1 4 - - 0.0
21/03:30am 23.1 27.7 21.7 92 0.9 CALM 0 4 0 2 - - 0.0
21/03:00am 23.2 27.8 21.8 92 0.9 CALM 0 0 0 0 - - 0.0
21/02:30am 23.2 26.6 21.6 91 1.1 E 6 9 3 5 - - 0.0
21/02:00am 23.4 28.0 21.8 91 1.1 CALM 0 0 0 0 - - 0.0
21/01:30am 23.5 28.1 21.8 90 1.1 CALM 0 0 0 0 - - 0.0
21/01:00am 23.6 27.8 21.7 89 1.3 E 2 7 1 4 - - 0.0
21/12:30am 23.5 28.1 21.8 90 1.1 CALM 0 0 0 0 - - 0.0
21/12:00am 23.3 27.9 21.7 91 1.1 CALM 0 0 0 0 - - 0.0
 
Date/Time
EDT
Temp
°C
App
Temp
°C
Dew
Point
°C
Rel
Hum
%
Delta-T
°C
Wind Press
QNH
hPa
Press
MSL
hPa
Rain since
9am
mm
Dir  Spd
km/h
Gust
km/h
Spd
kts
Gust
kts
20/11:30pm 23.5 28.1 21.8 90 1.1 CALM 0 0 0 0 - - 0.0
20/11:00pm 23.8 27.9 21.5 87 1.5 N 2 13 1 7 - - 0.0
20/10:30pm 24.1 28.1 21.4 85 1.8 NE 2 9 1 5 - - 0.0
20/10:00pm 24.2 27.3 21.5 85 1.8 NE 7 13 4 7 - - 0.0
20/09:30pm 24.2 27.2 21.3 84 1.9 E 7 13 4 7 - - 0.0
20/09:00pm 24.3 26.9 21.2 83 2.0 NE 9 17 5 9 - - 0.0
20/08:30pm 24.4 27.1 21.3 83 2.0 NE 9 15 5 8 - - 0.0
20/08:00pm 24.6 27.0 21.5 83 2.1 E 11 19 6 10 - - 0.0
20/07:30pm 24.9 28.1 21.6 82 2.2 ENE 7 13 4 7 - - 0.0
20/07:00pm 25.2 28.0 21.5 80 2.5 NE 9 15 5 8 - - 0.0
20/06:30pm 25.6 27.6 21.5 78 2.7 NE 13 20 7 11 - - 0.0
20/06:00pm 26.1 28.0 21.3 75 3.2 NNE 13 24 7 13 - - 0.0
20/05:30pm 26.7 28.4 21.7 74 3.3 NE 15 24 8 13 - - 0.0
20/05:00pm 27.0 29.1 21.7 73 3.5 NE 13 20 7 11 - - 0.0
20/04:30pm 27.4 29.1 21.7 71 3.8 NE 15 22 8 12 - - 0.0
20/04:00pm 27.5 29.4 22.0 72 3.7 E 15 22 8 12 - - 0.0
20/03:30pm 28.4 31.0 21.9 68 4.4 E 11 19 6 10 - - 0.0
20/03:00pm 29.2 32.7 21.9 64 4.9 NE 6 11 3 6 - - 0.0
20/02:30pm 28.5 31.5 22.0 68 4.4 ENE 9 20 5 11 - - 0.0
20/02:00pm 28.1 31.2 22.1 70 4.0 ENE 9 15 5 8 - - 0.0
20/01:30pm 28.0 30.7 21.3 67 4.5 NE 9 15 5 8 - - 0.0
20/01:00pm 28.1 30.8 21.4 67 4.5 ENE 9 17 5 9 - - 0.0
20/12:30pm 26.9 30.1 21.2 71 3.8 NNE 6 11 3 6 - - 0.0
20/12:00pm 26.4 29.0 21.2 73 3.4 N 9 15 5 8 - - 0.0
20/11:30am 27.0 29.2 21.1 70 3.9 N 11 17 6 9 - - 0.0

Other Formats:

Comma delimited format used in spreadsheet applications
http://www.bom.gov.au/fwo/IDN60801/IDN60801.95765.axf

JavaScript Object Notation format (JSON) in row-major order
http://www.bom.gov.au/fwo/IDN60801/IDN60801.95765.json